sensor_id;sensor_type;location;lat;lon;timestamp;P1;durP1;ratioP1;P2;durP2;ratioP2
55346;SDS011;41218;55.700;38.270;2022-10-16T00:00:39;24.52;;;11.10;;
55346;SDS011;41218;55.700;38.270;2022-10-16T00:05:42;25.75;;;11.23;;
55346;SDS011;41218;55.700;38.270;2022-10-16T00:10:43;27.95;;;11.65;;
55346;SDS011;41218;55.700;38.270;2022-10-16T00:15:44;23.27;;;10.67;;
55346;SDS011;41218;55.700;38.270;2022-10-16T00:20:44;24.40;;;10.97;;
55346;SDS011;41218;55.700;38.270;2022-10-16T00:25:45;23.93;;;10.40;;
55346;SDS011;41218;55.700;38.270;2022-10-16T00:30:54;26.92;;;11.07;;
55346;SDS011;41218;55.700;38.270;2022-10-16T00:35:57;21.17;;;10.25;;
55346;SDS011;41218;55.700;38.270;2022-10-16T00:40:58;21.67;;;10.70;;
55346;SDS011;41218;55.700;38.270;2022-10-16T00:46:00;21.02;;;9.73;;
55346;SDS011;41218;55.700;38.270;2022-10-16T00:51:01;23.42;;;10.13;;
55346;SDS011;41218;55.700;38.270;2022-10-16T00:56:02;29.83;;;10.53;;
55346;SDS011;41218;55.700;38.270;2022-10-16T01:01:03;20.67;;;9.80;;
55346;SDS011;41218;55.700;38.270;2022-10-16T01:06:07;21.50;;;9.90;;
55346;SDS011;41218;55.700;38.270;2022-10-16T01:11:22;23.35;;;9.80;;
55346;SDS011;41218;55.700;38.270;2022-10-16T01:21:40;24.20;;;9.68;;
55346;SDS011;41218;55.700;38.270;2022-10-16T01:26:50;19.42;;;8.68;;
55346;SDS011;41218;55.700;38.270;2022-10-16T01:43:15;22.95;;;9.18;;
55346;SDS011;41218;55.700;38.270;2022-10-16T01:48:19;17.23;;;8.45;;
55346;SDS011;41218;55.700;38.270;2022-10-16T01:53:23;19.98;;;8.85;;
55346;SDS011;41218;55.700;38.270;2022-10-16T01:58:25;17.65;;;8.38;;
55346;SDS011;41218;55.700;38.270;2022-10-16T02:03:30;21.55;;;9.30;;
55346;SDS011;41218;55.700;38.270;2022-10-16T02:08:33;19.73;;;8.38;;
55346;SDS011;41218;55.700;38.270;2022-10-16T02:18:45;15.35;;;8.07;;
55346;SDS011;41218;55.700;38.270;2022-10-16T02:28:46;19.77;;;7.87;;
55346;SDS011;41218;55.700;38.270;2022-10-16T02:33:52;15.52;;;7.43;;
55346;SDS011;41218;55.700;38.270;2022-10-16T02:38:54;18.67;;;7.40;;
55346;SDS011;41218;55.700;38.270;2022-10-16T02:43:55;17.45;;;7.85;;
55346;SDS011;41218;55.700;38.270;2022-10-16T02:48:56;14.50;;;7.20;;
55346;SDS011;41218;55.700;38.270;2022-10-16T02:53:56;18.13;;;7.43;;
55346;SDS011;41218;55.700;38.270;2022-10-16T02:58:57;16.97;;;6.97;;
55346;SDS011;41218;55.700;38.270;2022-10-16T03:03:57;19.50;;;7.30;;
55346;SDS011;41218;55.700;38.270;2022-10-16T03:08:58;13.83;;;6.93;;
55346;SDS011;41218;55.700;38.270;2022-10-16T03:13:58;17.17;;;7.27;;
55346;SDS011;41218;55.700;38.270;2022-10-16T03:18:59;15.50;;;6.97;;
55346;SDS011;41218;55.700;38.270;2022-10-16T03:23:59;17.67;;;7.10;;
55346;SDS011;41218;55.700;38.270;2022-10-16T03:29:00;13.30;;;6.50;;
55346;SDS011;41218;55.700;38.270;2022-10-16T03:34:02;14.07;;;6.78;;
55346;SDS011;41218;55.700;38.270;2022-10-16T03:39:03;17.20;;;7.20;;
55346;SDS011;41218;55.700;38.270;2022-10-16T03:44:03;13.90;;;6.40;;
55346;SDS011;41218;55.700;38.270;2022-10-16T03:49:04;14.80;;;6.70;;
55346;SDS011;41218;55.700;38.270;2022-10-16T03:54:04;13.73;;;6.17;;
55346;SDS011;41218;55.700;38.270;2022-10-16T03:59:05;15.07;;;7.00;;
55346;SDS011;41218;55.700;38.270;2022-10-16T04:04:05;14.47;;;6.73;;
55346;SDS011;41218;55.700;38.270;2022-10-16T04:09:06;16.57;;;6.83;;
55346;SDS011;41218;55.700;38.270;2022-10-16T04:14:06;15.23;;;6.60;;
55346;SDS011;41218;55.700;38.270;2022-10-16T04:19:07;15.27;;;7.20;;
55346;SDS011;41218;55.700;38.270;2022-10-16T04:24:08;16.42;;;6.75;;
55346;SDS011;41218;55.700;38.270;2022-10-16T04:29:11;15.15;;;6.68;;
55346;SDS011;41218;55.700;38.270;2022-10-16T04:34:11;14.60;;;7.13;;
55346;SDS011;41218;55.700;38.270;2022-10-16T04:39:12;17.90;;;7.00;;
55346;SDS011;41218;55.700;38.270;2022-10-16T04:44:12;12.10;;;6.23;;
55346;SDS011;41218;55.700;38.270;2022-10-16T04:49:13;15.80;;;6.53;;
55346;SDS011;41218;55.700;38.270;2022-10-16T04:54:13;13.63;;;6.20;;
55346;SDS011;41218;55.700;38.270;2022-10-16T04:59:14;12.90;;;6.13;;
55346;SDS011;41218;55.700;38.270;2022-10-16T05:04:15;14.50;;;6.67;;
55346;SDS011;41218;55.700;38.270;2022-10-16T05:09:16;12.75;;;6.38;;
55346;SDS011;41218;55.700;38.270;2022-10-16T05:14:16;13.43;;;6.50;;
55346;SDS011;41218;55.700;38.270;2022-10-16T05:19:17;11.50;;;6.37;;
55346;SDS011;41218;55.700;38.270;2022-10-16T05:24:18;10.47;;;5.93;;
55346;SDS011;41218;55.700;38.270;2022-10-16T05:29:18;17.13;;;7.00;;
55346;SDS011;41218;55.700;38.270;2022-10-16T05:34:19;14.40;;;6.82;;
55346;SDS011;41218;55.700;38.270;2022-10-16T05:39:20;11.50;;;6.10;;
55346;SDS011;41218;55.700;38.270;2022-10-16T05:44:20;15.27;;;6.60;;
55346;SDS011;41218;55.700;38.270;2022-10-16T05:49:21;17.23;;;6.30;;
55346;SDS011;41218;55.700;38.270;2022-10-16T05:54:21;12.57;;;6.33;;
55346;SDS011;41218;55.700;38.270;2022-10-16T05:59:22;14.47;;;6.87;;
55346;SDS011;41218;55.700;38.270;2022-10-16T06:04:22;14.37;;;7.20;;
55346;SDS011;41218;55.700;38.270;2022-10-16T06:09:23;14.60;;;7.20;;
55346;SDS011;41218;55.700;38.270;2022-10-16T06:14:23;15.50;;;7.00;;
55346;SDS011;41218;55.700;38.270;2022-10-16T06:19:24;17.33;;;6.77;;
55346;SDS011;41218;55.700;38.270;2022-10-16T06:24:25;16.67;;;7.40;;
55346;SDS011;41218;55.700;38.270;2022-10-16T06:29:25;14.63;;;7.47;;
55346;SDS011;41218;55.700;38.270;2022-10-16T06:34:26;14.90;;;7.27;;
55346;SDS011;41218;55.700;38.270;2022-10-16T06:39:26;14.23;;;7.33;;
55346;SDS011;41218;55.700;38.270;2022-10-16T06:44:27;18.83;;;8.03;;
55346;SDS011;41218;55.700;38.270;2022-10-16T06:49:27;14.40;;;7.20;;
55346;SDS011;41218;55.700;38.270;2022-10-16T06:54:28;13.40;;;7.28;;
55346;SDS011;41218;55.700;38.270;2022-10-16T06:59:29;15.50;;;7.83;;
55346;SDS011;41218;55.700;38.270;2022-10-16T07:04:29;13.17;;;7.20;;
55346;SDS011;41218;55.700;38.270;2022-10-16T07:09:30;15.87;;;7.70;;
55346;SDS011;41218;55.700;38.270;2022-10-16T07:14:30;14.70;;;7.30;;
55346;SDS011;41218;55.700;38.270;2022-10-16T07:19:31;16.40;;;6.63;;
55346;SDS011;41218;55.700;38.270;2022-10-16T07:24:31;17.60;;;7.13;;
55346;SDS011;41218;55.700;38.270;2022-10-16T07:29:32;13.47;;;6.97;;
55346;SDS011;41218;55.700;38.270;2022-10-16T07:34:32;18.20;;;7.50;;
55346;SDS011;41218;55.700;38.270;2022-10-16T07:39:33;14.67;;;6.67;;
55346;SDS011;41218;55.700;38.270;2022-10-16T07:44:33;15.27;;;6.97;;
55346;SDS011;41218;55.700;38.270;2022-10-16T07:49:34;13.00;;;6.37;;
55346;SDS011;41218;55.700;38.270;2022-10-16T07:54:35;11.77;;;5.97;;
55346;SDS011;41218;55.700;38.270;2022-10-16T07:59:35;12.83;;;6.47;;
55346;SDS011;41218;55.700;38.270;2022-10-16T08:04:36;14.50;;;6.57;;
55346;SDS011;41218;55.700;38.270;2022-10-16T08:09:36;12.17;;;6.30;;
55346;SDS011;41218;55.700;38.270;2022-10-16T08:14:36;11.23;;;6.23;;
55346;SDS011;41218;55.700;38.270;2022-10-16T08:19:37;12.50;;;6.20;;
55346;SDS011;41218;55.700;38.270;2022-10-16T08:24:37;11.00;;;5.73;;
55346;SDS011;41218;55.700;38.270;2022-10-16T08:29:38;9.77;;;5.70;;
55346;SDS011;41218;55.700;38.270;2022-10-16T08:34:38;10.17;;;5.73;;
55346;SDS011;41218;55.700;38.270;2022-10-16T08:39:39;8.13;;;5.13;;
55346;SDS011;41218;55.700;38.270;2022-10-16T08:50:00;9.75;;;5.40;;
55346;SDS011;41218;55.700;38.270;2022-10-16T09:00:43;12.93;;;5.65;;
55346;SDS011;41218;55.700;38.270;2022-10-16T09:05:52;9.27;;;5.15;;
55346;SDS011;41218;55.700;38.270;2022-10-16T09:21:47;8.82;;;4.85;;
55346;SDS011;41218;55.700;38.270;2022-10-16T09:26:48;11.23;;;4.85;;
55346;SDS011;41218;55.700;38.270;2022-10-16T09:31:49;10.70;;;5.03;;
55346;SDS011;41218;55.700;38.270;2022-10-16T09:36:51;10.02;;;4.97;;
55346;SDS011;41218;55.700;38.270;2022-10-16T09:41:51;10.00;;;4.53;;
55346;SDS011;41218;55.700;38.270;2022-10-16T09:47:10;10.80;;;4.75;;
55346;SDS011;41218;55.700;38.270;2022-10-16T09:52:18;9.35;;;4.00;;
55346;SDS011;41218;55.700;38.270;2022-10-16T09:57:20;6.90;;;3.15;;
55346;SDS011;41218;55.700;38.270;2022-10-16T10:02:31;7.78;;;4.18;;
55346;SDS011;41218;55.700;38.270;2022-10-16T10:07:37;7.75;;;3.55;;
55346;SDS011;41218;55.700;38.270;2022-10-16T10:12:42;7.78;;;3.22;;
55346;SDS011;41218;55.700;38.270;2022-10-16T10:17:46;7.60;;;3.80;;
55346;SDS011;41218;55.700;38.270;2022-10-16T10:22:57;7.80;;;3.35;;
55346;SDS011;41218;55.700;38.270;2022-10-16T10:28:00;7.80;;;3.10;;
55346;SDS011;41218;55.700;38.270;2022-10-16T10:33:14;6.85;;;2.60;;
55346;SDS011;41218;55.700;38.270;2022-10-16T10:38:35;6.10;;;3.20;;
55346;SDS011;41218;55.700;38.270;2022-10-16T10:43:56;8.18;;;3.40;;
55346;SDS011;41218;55.700;38.270;2022-10-16T10:54:38;6.78;;;3.70;;
55346;SDS011;41218;55.700;38.270;2022-10-16T11:11:04;8.15;;;3.17;;
55346;SDS011;41218;55.700;38.270;2022-10-16T11:16:20;8.68;;;3.60;;
55346;SDS011;41218;55.700;38.270;2022-10-16T11:21:22;5.78;;;2.85;;
55346;SDS011;41218;55.700;38.270;2022-10-16T11:31:38;5.32;;;2.80;;
55346;SDS011;41218;55.700;38.270;2022-10-16T11:47:27;5.35;;;3.10;;
55346;SDS011;41218;55.700;38.270;2022-10-16T11:53:35;11.15;;;3.50;;
55346;SDS011;41218;55.700;38.270;2022-10-16T11:58:16;6.75;;;3.55;;
55346;SDS011;41218;55.700;38.270;2022-10-16T12:08:28;9.32;;;3.05;;
55346;SDS011;41218;55.700;38.270;2022-10-16T12:13:30;5.40;;;3.10;;
55346;SDS011;41218;55.700;38.270;2022-10-16T12:18:33;6.10;;;3.00;;
55346;SDS011;41218;55.700;38.270;2022-10-16T12:23:37;6.60;;;3.30;;
55346;SDS011;41218;55.700;38.270;2022-10-16T12:28:46;6.68;;;2.95;;
55346;SDS011;41218;55.700;38.270;2022-10-16T12:33:58;4.72;;;2.63;;
55346;SDS011;41218;55.700;38.270;2022-10-16T12:39:01;5.90;;;2.72;;
55346;SDS011;41218;55.700;38.270;2022-10-16T12:44:02;5.85;;;2.85;;
55346;SDS011;41218;55.700;38.270;2022-10-16T12:54:27;9.82;;;3.15;;
55346;SDS011;41218;55.700;38.270;2022-10-16T13:00:13;5.57;;;3.08;;
55346;SDS011;41218;55.700;38.270;2022-10-16T13:10:54;6.25;;;3.10;;
55346;SDS011;41218;55.700;38.270;2022-10-16T13:16:30;6.65;;;3.15;;
55346;SDS011;41218;55.700;38.270;2022-10-16T13:32:14;7.60;;;2.92;;
55346;SDS011;41218;55.700;38.270;2022-10-16T13:37:19;7.55;;;3.83;;
55346;SDS011;41218;55.700;38.270;2022-10-16T13:42:26;9.15;;;4.28;;
55346;SDS011;41218;55.700;38.270;2022-10-16T13:47:28;9.32;;;4.35;;
55346;SDS011;41218;55.700;38.270;2022-10-16T13:52:29;12.88;;;4.30;;
55346;SDS011;41218;55.700;38.270;2022-10-16T13:57:30;9.98;;;5.20;;
55346;SDS011;41218;55.700;38.270;2022-10-16T14:02:32;15.63;;;5.77;;
55346;SDS011;41218;55.700;38.270;2022-10-16T14:07:36;9.93;;;5.05;;
55346;SDS011;41218;55.700;38.270;2022-10-16T14:12:38;13.48;;;4.68;;
55346;SDS011;41218;55.700;38.270;2022-10-16T14:17:38;10.93;;;5.20;;
55346;SDS011;41218;55.700;38.270;2022-10-16T14:22:45;7.25;;;4.20;;
55346;SDS011;41218;55.700;38.270;2022-10-16T14:33:20;9.60;;;5.20;;
55346;SDS011;41218;55.700;38.270;2022-10-16T14:38:23;9.38;;;4.63;;
55346;SDS011;41218;55.700;38.270;2022-10-16T14:43:28;8.13;;;4.55;;
55346;SDS011;41218;55.700;38.270;2022-10-16T14:48:32;8.60;;;4.68;;
55346;SDS011;41218;55.700;38.270;2022-10-16T14:53:33;7.32;;;4.20;;
55346;SDS011;41218;55.700;38.270;2022-10-16T14:58:34;7.57;;;4.17;;
55346;SDS011;41218;55.700;38.270;2022-10-16T15:03:35;8.50;;;4.43;;
55346;SDS011;41218;55.700;38.270;2022-10-16T15:08:35;8.87;;;4.57;;
55346;SDS011;41218;55.700;38.270;2022-10-16T15:13:36;9.83;;;4.50;;
55346;SDS011;41218;55.700;38.270;2022-10-16T15:18:36;7.13;;;4.00;;
55346;SDS011;41218;55.700;38.270;2022-10-16T15:23:37;7.50;;;3.77;;
55346;SDS011;41218;55.700;38.270;2022-10-16T15:28:38;6.90;;;4.00;;
55346;SDS011;41218;55.700;38.270;2022-10-16T15:33:39;11.33;;;4.30;;
55346;SDS011;41218;55.700;38.270;2022-10-16T15:38:39;11.97;;;4.43;;
55346;SDS011;41218;55.700;38.270;2022-10-16T15:43:40;7.60;;;4.13;;
55346;SDS011;41218;55.700;38.270;2022-10-16T15:48:40;9.00;;;4.50;;
55346;SDS011;41218;55.700;38.270;2022-10-16T15:53:41;8.27;;;4.33;;
55346;SDS011;41218;55.700;38.270;2022-10-16T15:58:42;9.70;;;4.28;;
55346;SDS011;41218;55.700;38.270;2022-10-16T16:03:43;8.85;;;4.38;;
55346;SDS011;41218;55.700;38.270;2022-10-16T16:08:44;8.57;;;4.50;;
55346;SDS011;41218;55.700;38.270;2022-10-16T16:13:45;9.83;;;4.70;;
55346;SDS011;41218;55.700;38.270;2022-10-16T16:18:45;9.23;;;4.37;;
55346;SDS011;41218;55.700;38.270;2022-10-16T16:23:46;10.47;;;4.40;;
55346;SDS011;41218;55.700;38.270;2022-10-16T16:28:46;12.43;;;4.80;;
55346;SDS011;41218;55.700;38.270;2022-10-16T16:33:47;11.27;;;4.97;;
55346;SDS011;41218;55.700;38.270;2022-10-16T16:38:48;8.30;;;4.57;;
55346;SDS011;41218;55.700;38.270;2022-10-16T16:43:48;11.17;;;4.97;;
55346;SDS011;41218;55.700;38.270;2022-10-16T16:48:51;11.40;;;5.00;;
55346;SDS011;41218;55.700;38.270;2022-10-16T16:53:55;9.98;;;4.97;;
55346;SDS011;41218;55.700;38.270;2022-10-16T16:58:56;10.43;;;4.72;;
55346;SDS011;41218;55.700;38.270;2022-10-16T17:03:57;10.23;;;5.50;;
55346;SDS011;41218;55.700;38.270;2022-10-16T17:08:58;12.00;;;5.50;;
55346;SDS011;41218;55.700;38.270;2022-10-16T17:14:01;10.73;;;4.97;;
55346;SDS011;41218;55.700;38.270;2022-10-16T17:19:03;12.77;;;5.05;;
55346;SDS011;41218;55.700;38.270;2022-10-16T17:24:08;9.85;;;5.13;;
55346;SDS011;41218;55.700;38.270;2022-10-16T17:34:11;12.90;;;5.53;;
55346;SDS011;41218;55.700;38.270;2022-10-16T17:39:13;10.85;;;5.57;;
55346;SDS011;41218;55.700;38.270;2022-10-16T17:44:16;13.20;;;5.38;;
55346;SDS011;41218;55.700;38.270;2022-10-16T17:49:20;14.02;;;6.05;;
55346;SDS011;41218;55.700;38.270;2022-10-16T17:54:21;11.52;;;6.03;;
55346;SDS011;41218;55.700;38.270;2022-10-16T17:59:22;14.93;;;6.07;;
55346;SDS011;41218;55.700;38.270;2022-10-16T18:04:23;17.58;;;7.60;;
55346;SDS011;41218;55.700;38.270;2022-10-16T18:09:24;15.77;;;6.67;;
55346;SDS011;41218;55.700;38.270;2022-10-16T18:14:29;12.93;;;6.30;;
55346;SDS011;41218;55.700;38.270;2022-10-16T18:19:31;16.45;;;6.68;;
55346;SDS011;41218;55.700;38.270;2022-10-16T18:24:32;13.10;;;5.82;;
55346;SDS011;41218;55.700;38.270;2022-10-16T18:29:33;14.47;;;6.10;;
55346;SDS011;41218;55.700;38.270;2022-10-16T18:34:34;20.65;;;7.22;;
55346;SDS011;41218;55.700;38.270;2022-10-16T18:39:36;17.20;;;6.60;;
55346;SDS011;41218;55.700;38.270;2022-10-16T18:44:37;17.53;;;6.93;;
55346;SDS011;41218;55.700;38.270;2022-10-16T18:49:38;13.50;;;6.33;;
55346;SDS011;41218;55.700;38.270;2022-10-16T18:54:39;18.63;;;6.47;;
55346;SDS011;41218;55.700;38.270;2022-10-16T18:59:39;13.52;;;6.80;;
55346;SDS011;41218;55.700;38.270;2022-10-16T19:04:40;16.10;;;7.03;;
55346;SDS011;41218;55.700;38.270;2022-10-16T19:09:41;12.37;;;5.93;;
55346;SDS011;41218;55.700;38.270;2022-10-16T19:14:41;11.07;;;6.17;;
55346;SDS011;41218;55.700;38.270;2022-10-16T19:19:42;13.17;;;5.87;;
55346;SDS011;41218;55.700;38.270;2022-10-16T19:24:43;15.17;;;5.63;;
55346;SDS011;41218;55.700;38.270;2022-10-16T19:29:43;14.70;;;5.75;;
55346;SDS011;41218;55.700;38.270;2022-10-16T19:34:44;11.17;;;5.63;;
55346;SDS011;41218;55.700;38.270;2022-10-16T19:39:50;10.43;;;5.25;;
55346;SDS011;41218;55.700;38.270;2022-10-16T19:44:50;13.10;;;5.70;;
55346;SDS011;41218;55.700;38.270;2022-10-16T19:49:51;10.20;;;5.50;;
55346;SDS011;41218;55.700;38.270;2022-10-16T19:54:53;11.02;;;5.47;;
55346;SDS011;41218;55.700;38.270;2022-10-16T19:59:56;13.50;;;5.43;;
55346;SDS011;41218;55.700;38.270;2022-10-16T20:04:57;10.57;;;5.70;;
55346;SDS011;41218;55.700;38.270;2022-10-16T20:09:57;10.63;;;5.30;;
55346;SDS011;41218;55.700;38.270;2022-10-16T20:14:58;12.07;;;6.10;;
55346;SDS011;41218;55.700;38.270;2022-10-16T20:19:58;10.73;;;4.90;;
55346;SDS011;41218;55.700;38.270;2022-10-16T20:24:59;10.20;;;5.20;;
55346;SDS011;41218;55.700;38.270;2022-10-16T20:29:59;11.33;;;5.57;;
55346;SDS011;41218;55.700;38.270;2022-10-16T20:35:00;11.20;;;5.13;;
55346;SDS011;41218;55.700;38.270;2022-10-16T20:40:00;10.73;;;5.13;;
55346;SDS011;41218;55.700;38.270;2022-10-16T20:45:01;10.40;;;4.67;;
55346;SDS011;41218;55.700;38.270;2022-10-16T20:50:01;8.80;;;5.00;;
55346;SDS011;41218;55.700;38.270;2022-10-16T20:55:02;8.20;;;4.73;;
55346;SDS011;41218;55.700;38.270;2022-10-16T21:00:04;9.40;;;4.85;;
55346;SDS011;41218;55.700;38.270;2022-10-16T21:05:05;9.50;;;4.88;;
55346;SDS011;41218;55.700;38.270;2022-10-16T21:10:06;11.50;;;4.80;;
55346;SDS011;41218;55.700;38.270;2022-10-16T21:15:07;10.70;;;4.63;;
55346;SDS011;41218;55.700;38.270;2022-10-16T21:20:08;10.65;;;4.78;;
55346;SDS011;41218;55.700;38.270;2022-10-16T21:25:08;9.25;;;4.80;;
55346;SDS011;41218;55.700;38.270;2022-10-16T21:30:09;12.07;;;4.67;;
55346;SDS011;41218;55.700;38.270;2022-10-16T21:35:10;9.10;;;4.77;;
55346;SDS011;41218;55.700;38.270;2022-10-16T21:40:10;6.20;;;4.10;;
55346;SDS011;41218;55.700;38.270;2022-10-16T21:45:11;9.43;;;4.70;;
55346;SDS011;41218;55.700;38.270;2022-10-16T21:50:11;6.90;;;4.47;;
55346;SDS011;41218;55.700;38.270;2022-10-16T21:55:12;10.13;;;4.17;;
55346;SDS011;41218;55.700;38.270;2022-10-16T22:00:13;9.13;;;4.57;;
55346;SDS011;41218;55.700;38.270;2022-10-16T22:05:14;8.73;;;4.03;;
55346;SDS011;41218;55.700;38.270;2022-10-16T22:10:14;14.07;;;4.70;;
55346;SDS011;41218;55.700;38.270;2022-10-16T22:15:15;7.73;;;4.10;;
55346;SDS011;41218;55.700;38.270;2022-10-16T22:20:15;9.27;;;4.43;;
55346;SDS011;41218;55.700;38.270;2022-10-16T22:25:16;8.50;;;4.10;;
55346;SDS011;41218;55.700;38.270;2022-10-16T22:30:16;6.67;;;3.73;;
55346;SDS011;41218;55.700;38.270;2022-10-16T22:35:17;8.37;;;4.57;;
55346;SDS011;41218;55.700;38.270;2022-10-16T22:40:17;8.67;;;4.20;;
55346;SDS011;41218;55.700;38.270;2022-10-16T22:45:18;10.23;;;4.60;;
55346;SDS011;41218;55.700;38.270;2022-10-16T22:50:18;7.87;;;4.20;;
55346;SDS011;41218;55.700;38.270;2022-10-16T22:55:19;8.80;;;4.27;;
55346;SDS011;41218;55.700;38.270;2022-10-16T23:00:20;6.55;;;4.18;;
55346;SDS011;41218;55.700;38.270;2022-10-16T23:05:20;10.00;;;4.63;;
55346;SDS011;41218;55.700;38.270;2022-10-16T23:10:21;8.47;;;4.27;;
55346;SDS011;41218;55.700;38.270;2022-10-16T23:15:26;7.65;;;4.35;;
55346;SDS011;41218;55.700;38.270;2022-10-16T23:20:27;9.00;;;4.40;;
55346;SDS011;41218;55.700;38.270;2022-10-16T23:25:27;7.97;;;4.47;;
55346;SDS011;41218;55.700;38.270;2022-10-16T23:30:28;7.90;;;4.03;;
55346;SDS011;41218;55.700;38.270;2022-10-16T23:35:28;13.70;;;4.83;;
55346;SDS011;41218;55.700;38.270;2022-10-16T23:40:29;9.60;;;4.23;;
55346;SDS011;41218;55.700;38.270;2022-10-16T23:45:29;12.80;;;4.70;;
55346;SDS011;41218;55.700;38.270;2022-10-16T23:50:30;11.03;;;4.93;;
55346;SDS011;41218;55.700;38.270;2022-10-16T23:55:30;8.17;;;4.30;;
